Ana Sayfa
METAR-TAF:

METAR-TAF

Havaalanları :

Alexandria, Louisiana, Amerika Birleşik Devletleri

Enlem: 31-23-42N, Boylam: 092-17-25W, yükseklik: 34 m

Güncel hava durumu gözlemi

Rapor saat 18:53 UTC de 34 dakika önce yapıldı.
Rüzgar güney/güneybatıdan 6 kt
Sıcaklık 34°C
Nem 56%
Basınç 1014 hPa
Görüş mesafesi: 16.1 km
4500 ft yükseklikte parçalı bulutlu
6000 ft yükseklikte parçalı çok bulutlu

METAR: KESF 251853Z AUTO 21006KT 10SM SCT045 BKN060 34/24 A2994 RMK AO2 SLP136 T03440239

Saat: 14:27 (19:27 UTC)


TAF: eksik

4.000'den fazla havaalanı için hava durumu gözlemleri ve tahminleri (METAR ve TAF raporları).

Kullanılabilir istasyonlar harita üzerinde sarı ve kırmızı noktalarla gösterilir.

İstasyonun adını görmek için fareyi noktanın üzerinde gezdirin.

Sonrasında hava gözlem ve tahminlerini görmek için tıklayın.

Haritayı değiştirmek için: yaklaştırmak için siyah artı işaretli yeşil düğmeye ve uzaklaştırmak için de eksi işaretli düğmeye hızla tıklayın; bitişik haritalar için yeşil okları kullanın.


METAR-TAF: